San Diego, California
Current Conditions -  °F | °C
As of 10:11 PM on Friday 28 Nov 2014 (Local Time) from KSAN Reporting Station
Haze Haze  
Wind Chill: 61°   Ceiling: 400
Heat Index: 61°   Visibility: 1.2mi
Dew Point: 57°   Wind: 6mph
Humidity: 88%   Direction: 190°S
Pressure: 29.94"   Gusts: NA
Location:  32.72°N, 117.16°W
Report Text: KSAN 290611Z 19005KT 1 1/4SM BR OVC004 16/14 A2994 RMK AO2
Loading
Personal Weather Stations






























Interactive Weather Map New forecast layout! Learn more

10-Day Weather Forecast

Advertisements
Track Severe Weather on mobile